Time;durP1;ratioP1;P1;durP2;ratioP2;P2;SDS_P1;SDS_P2;PMS_P1;PMS_P2;Temp;Humidity;BMP_temperature;BMP_pressure;BME280_temperature;BME280_humidity;BME280_pressure;Samples;Min_cycle;Max_cycle;Signal;HPM_P1;HPM_P2
2022/08/21 00:01:16;;;;;;;11.30;6.93;;;17.00;99.90;;;;;;5072879;28;20040;-59
2022/08/21 00:03:41;;;;;;;13.15;7.03;;;17.00;99.90;;;;;;5062013;28;20120;-58
2022/08/21 00:06:08;;;;;;;15.65;7.13;;;16.90;99.90;;;;;;5073298;28;20466;-58
2022/08/21 00:08:34;;;;;;;14.30;7.43;;;16.90;99.90;;;;;;5072467;28;20040;-58
2022/08/21 00:11:01;;;;;;;8.98;7.00;;;16.90;99.90;;;;;;5072516;28;20032;-59
2022/08/21 00:13:27;;;;;;;11.88;6.85;;;16.90;99.90;;;;;;5061352;28;20033;-58
2022/08/21 00:15:53;;;;;;;13.88;7.63;;;16.90;99.90;;;;;;5072151;28;20028;-59
2022/08/21 00:18:19;;;;;;;14.23;7.20;;;16.90;99.90;;;;;;5072999;28;20077;-59
2022/08/21 00:20:46;;;;;;;12.68;7.15;;;16.80;99.90;;;;;;5072783;28;20115;-59
2022/08/21 00:23:12;;;;;;;12.07;6.82;;;16.80;99.90;;;;;;5063028;28;20537;-59
2022/08/21 00:25:39;;;;;;;9.65;6.50;;;16.70;99.90;;;;;;5063508;28;20052;-59
2022/08/21 00:28:06;;;;;;;10.73;6.43;;;16.70;99.90;;;;;;5072545;28;20044;-59
2022/08/21 00:30:33;;;;;;;12.10;7.20;;;16.70;99.90;;;;;;5071893;28;20037;-59
2022/08/21 00:32:59;;;;;;;11.88;7.20;;;16.60;99.90;;;;;;5065735;28;20080;-59
2022/08/21 00:35:29;;;;;;;12.55;6.15;;;16.60;99.90;;;;;;5073049;28;20036;-59
2022/08/21 00:37:55;;;;;;;9.00;6.28;;;16.60;99.90;;;;;;5072200;28;20037;-59
2022/08/21 00:40:26;;;;;;;8.93;5.95;;;16.50;99.90;;;;;;5052265;28;20097;-59
2022/08/21 00:42:52;;;;;;;9.50;6.35;;;16.60;99.90;;;;;;5058439;28;20068;-61
2022/08/21 00:45:18;;;;;;;9.63;5.80;;;16.60;99.90;;;;;;5070495;28;20074;-59
2022/08/21 00:47:43;;;;;;;14.63;6.53;;;16.60;99.90;;;;;;5072108;28;20274;-59
2022/08/21 00:50:11;;;;;;;10.45;6.28;;;16.60;99.90;;;;;;5071897;28;20032;-59
2022/08/21 00:52:38;;;;;;;12.38;6.63;;;16.60;99.90;;;;;;5067805;28;20407;-58
2022/08/21 00:55:08;;;;;;;8.20;5.70;;;16.60;99.90;;;;;;5067869;28;20032;-59
2022/08/21 00:57:47;;;;;;;10.00;5.88;;;16.60;99.90;;;;;;5072380;28;20044;-60
2022/08/21 01:00:16;;;;;;;13.45;6.75;;;16.60;99.90;;;;;;5071767;28;20519;-59
2022/08/21 01:02:45;;;;;;;11.88;6.32;;;16.50;99.90;;;;;;5066798;28;20048;-60
2022/08/21 01:05:12;;;;;;;11.50;6.68;;;16.60;99.90;;;;;;5052901;28;20037;-59
2022/08/21 01:07:38;;;;;;;8.73;6.13;;;16.60;99.90;;;;;;5064815;28;20047;-59
2022/08/21 01:10:06;;;;;;;10.48;6.05;;;16.60;99.90;;;;;;5064786;28;20033;-59
2022/08/21 01:12:33;;;;;;;10.70;6.65;;;16.60;99.90;;;;;;5068151;28;20152;-59
2022/08/21 01:15:00;;;;;;;10.35;6.13;;;16.60;99.90;;;;;;5062541;28;20040;-59
2022/08/21 01:17:27;;;;;;;11.07;6.03;;;16.60;99.90;;;;;;5071868;28;20123;-59
2022/08/21 01:19:57;;;;;;;9.00;5.82;;;16.70;99.90;;;;;;5071593;28;20111;-60
2022/08/21 01:22:22;;;;;;;9.07;6.50;;;16.60;99.90;;;;;;5068340;28;20044;-59
2022/08/21 01:24:49;;;;;;;9.48;6.57;;;16.50;99.90;;;;;;5059752;28;20040;-59
2022/08/21 01:27:16;;;;;;;9.88;5.60;;;16.50;99.90;;;;;;5071325;28;20453;-59
2022/08/21 01:29:59;;;;;;;10.73;6.18;;;16.40;99.90;;;;;;5069055;28;20124;-59
2022/08/21 01:32:25;;;;;;;10.82;6.35;;;16.40;99.90;;;;;;5060433;28;20048;-59
2022/08/21 01:34:52;;;;;;;9.55;5.82;;;16.30;99.90;;;;;;5069069;28;20371;-59
2022/08/21 01:37:20;;;;;;;8.43;5.68;;;16.30;99.90;;;;;;5071510;28;20118;-59
2022/08/21 01:39:46;;;;;;;9.52;5.93;;;16.30;99.90;;;;;;5071399;28;20104;-59
2022/08/21 01:42:13;;;;;;;9.60;6.03;;;16.20;99.90;;;;;;5069812;28;20033;-59
2022/08/21 01:44:39;;;;;;;11.15;5.85;;;16.30;99.90;;;;;;5064906;28;20121;-60
2022/08/21 01:47:08;;;;;;;9.18;5.70;;;16.20;99.90;;;;;;5071324;28;20059;-59
2022/08/21 01:49:35;;;;;;;9.82;6.35;;;16.10;99.90;;;;;;5070113;28;20078;-59
2022/08/21 01:52:01;;;;;;;10.27;6.03;;;16.10;99.90;;;;;;5070843;28;20032;-59
2022/08/21 01:54:27;;;;;;;10.48;6.10;;;16.10;99.90;;;;;;5062730;28;20071;-59
2022/08/21 01:56:54;;;;;;;9.60;5.63;;;16.00;99.90;;;;;;5056005;28;20079;-59
2022/08/21 01:59:21;;;;;;;9.13;6.00;;;16.00;99.90;;;;;;5071475;28;20036;-59
2022/08/21 02:01:48;;;;;;;9.95;6.20;;;16.00;99.90;;;;;;5070504;28;20366;-59
2022/08/21 02:04:13;;;;;;;11.55;7.03;;;15.90;99.90;;;;;;5060768;28;20044;-59
2022/08/21 02:06:39;;;;;;;9.88;6.88;;;15.90;99.90;;;;;;5071310;28;20106;-60
2022/08/21 02:09:08;;;;;;;12.27;6.57;;;15.90;99.90;;;;;;5066037;28;20032;-59
2022/08/21 02:11:34;;;;;;;10.98;7.20;;;15.80;99.90;;;;;;5062105;28;20492;-59
2022/08/21 02:14:00;;;;;;;10.65;6.72;;;15.80;99.90;;;;;;5059234;28;20028;-59
2022/08/21 02:16:26;;;;;;;9.52;6.82;;;15.70;99.90;;;;;;5071113;28;20372;-59
2022/08/21 02:18:52;;;;;;;10.35;6.60;;;15.70;99.90;;;;;;5070894;28;20094;-59
2022/08/21 02:21:17;;;;;;;11.02;6.50;;;15.70;99.90;;;;;;5070831;28;20043;-59
2022/08/21 02:23:43;;;;;;;9.43;6.40;;;15.70;99.90;;;;;;5058161;28;20488;-59
2022/08/21 02:26:09;;;;;;;9.88;6.47;;;15.60;99.90;;;;;;5070500;28;20056;-59
2022/08/21 02:28:37;;;;;;;12.02;6.68;;;15.60;99.90;;;;;;5071101;28;20051;-60
2022/08/21 02:31:04;;;;;;;11.15;6.63;;;15.60;99.90;;;;;;5070646;28;20048;-60
2022/08/21 02:33:30;;;;;;;11.85;7.00;;;15.60;99.90;;;;;;5059593;28;20490;-59
2022/08/21 02:35:56;;;;;;;7.90;6.65;;;15.60;99.90;;;;;;5062915;28;20097;-59
2022/08/21 02:38:26;;;;;;;11.13;6.90;;;15.50;99.90;;;;;;5070971;28;20040;-59
2022/08/21 02:40:52;;;;;;;9.77;7.13;;;15.50;99.90;;;;;;5070693;28;20041;-59
2022/08/21 02:43:20;;;;;;;10.02;6.95;;;15.40;99.90;;;;;;5063977;28;20311;-58
2022/08/21 02:45:48;;;;;;;9.88;6.53;;;15.40;99.90;;;;;;5070979;28;20075;-59
2022/08/21 02:48:19;;;;;;;9.70;7.07;;;15.40;99.90;;;;;;5070481;28;20559;-59
2022/08/21 02:50:53;;;;;;;10.23;7.63;;;15.40;99.90;;;;;;5062535;28;20060;-59
2022/08/21 02:53:19;;;;;;;11.48;7.15;;;15.30;99.90;;;;;;5058268;28;20037;-59
2022/08/21 02:55:48;;;;;;;9.48;6.93;;;15.30;99.90;;;;;;5074636;28;20040;-59
2022/08/21 02:58:17;;;;;;;9.88;7.10;;;15.30;99.90;;;;;;5074491;28;20120;-60
2022/08/21 03:00:43;;;;;;;9.50;6.85;;;15.20;99.90;;;;;;5045321;28;20044;-59
2022/08/21 03:03:09;;;;;;;10.88;7.32;;;15.20;99.90;;;;;;5066699;28;20040;-59
2022/08/21 03:05:37;;;;;;;10.52;7.57;;;15.20;99.90;;;;;;5054240;28;20033;-59
2022/08/21 03:08:06;;;;;;;9.30;6.30;;;15.20;99.90;;;;;;5064587;28;20049;-59
2022/08/21 03:10:32;;;;;;;11.77;7.20;;;15.20;99.90;;;;;;5073570;28;20465;-59
2022/08/21 03:12:57;;;;;;;10.15;6.53;;;15.20;99.90;;;;;;5068227;28;20111;-59
2022/08/21 03:15:24;;;;;;;12.13;6.95;;;15.10;99.90;;;;;;5068945;28;20043;-60
2022/08/21 03:17:50;;;;;;;12.13;7.30;;;15.10;99.90;;;;;;5074244;28;20036;-60
2022/08/21 03:20:19;;;;;;;11.05;7.65;;;15.10;99.90;;;;;;5073717;28;20048;-59
2022/08/21 03:22:45;;;;;;;10.63;7.22;;;15.10;99.90;;;;;;5069342;28;20065;-59
2022/08/21 03:25:11;;;;;;;11.27;7.25;;;15.10;99.90;;;;;;5064849;28;20107;-59
2022/08/21 03:27:37;;;;;;;10.82;7.07;;;15.10;99.90;;;;;;5074089;28;20033;-59
2022/08/21 03:30:06;;;;;;;10.02;7.00;;;15.10;99.90;;;;;;5068027;28;20060;-59
2022/08/21 03:32:32;;;;;;;11.20;6.78;;;15.00;99.90;;;;;;5063450;28;20040;-59
2022/08/21 03:34:58;;;;;;;10.38;7.32;;;15.00;99.90;;;;;;5071750;28;20105;-59
2022/08/21 03:37:26;;;;;;;11.15;7.00;;;15.00;99.90;;;;;;5073880;28;20442;-59
2022/08/21 03:39:53;;;;;;;10.55;6.75;;;15.10;99.90;;;;;;5073552;28;20308;-59
2022/08/21 03:42:19;;;;;;;10.85;7.10;;;15.10;99.90;;;;;;5065110;28;20041;-60
2022/08/21 03:44:44;;;;;;;9.98;6.60;;;15.00;99.90;;;;;;5068082;28;20048;-59
2022/08/21 03:47:10;;;;;;;9.88;6.97;;;15.00;99.90;;;;;;5067207;28;20097;-59
2022/08/21 03:49:36;;;;;;;11.73;6.90;;;15.00;99.90;;;;;;5064624;28;20124;-59
2022/08/21 03:52:03;;;;;;;9.80;6.68;;;15.00;99.90;;;;;;5073338;28;20043;-59
2022/08/21 03:54:29;;;;;;;12.07;7.07;;;15.00;99.90;;;;;;5066086;28;20040;-58
2022/08/21 03:56:55;;;;;;;11.30;6.68;;;15.00;99.90;;;;;;5073581;28;20036;-60
2022/08/21 03:59:20;;;;;;;11.30;7.70;;;14.90;99.90;;;;;;5073193;28;20330;-59
2022/08/21 04:01:54;;;;;;;10.20;6.90;;;14.90;99.90;;;;;;5072987;28;20045;-59
2022/08/21 04:04:20;;;;;;;10.07;6.32;;;14.80;99.90;;;;;;5063291;28;20056;-60
2022/08/21 04:06:46;;;;;;;9.85;7.05;;;14.80;99.90;;;;;;5072774;28;20044;-60
2022/08/21 04:09:11;;;;;;;10.65;6.68;;;14.80;99.90;;;;;;5073125;28;20053;-59
2022/08/21 04:11:37;;;;;;;12.35;7.18;;;14.90;99.90;;;;;;5073037;28;20043;-60
2022/08/21 04:14:04;;;;;;;10.80;7.20;;;14.80;99.90;;;;;;5062188;28;20032;-59
2022/08/21 04:16:30;;;;;;;8.95;6.45;;;14.80;99.90;;;;;;5073119;28;20382;-59
2022/08/21 04:18:56;;;;;;;10.77;6.68;;;14.80;99.90;;;;;;5073049;28;20040;-59
2022/08/21 04:21:23;;;;;;;9.77;6.80;;;14.80;99.90;;;;;;5072857;28;20047;-59
2022/08/21 04:23:48;;;;;;;10.75;6.78;;;14.70;99.90;;;;;;5060336;28;20102;-59
2022/08/21 04:26:14;;;;;;;10.43;6.80;;;14.70;99.90;;;;;;5072274;28;20045;-59
2022/08/21 04:28:40;;;;;;;13.35;6.20;;;14.80;99.90;;;;;;5072852;28;20120;-59
2022/08/21 04:31:06;;;;;;;13.68;6.38;;;14.70;99.90;;;;;;5072337;28;20267;-59
2022/08/21 04:33:32;;;;;;;11.65;6.50;;;14.70;99.90;;;;;;5068379;28;20373;-59
2022/08/21 04:35:57;;;;;;;10.50;6.50;;;14.70;99.90;;;;;;5071824;28;20094;-59
2022/08/21 04:38:23;;;;;;;9.95;5.63;;;14.60;99.90;;;;;;5072476;28;20513;-60
2022/08/21 04:40:50;;;;;;;10.70;6.05;;;14.70;99.90;;;;;;5071897;28;20049;-59
2022/08/21 04:43:18;;;;;;;8.00;5.57;;;14.70;99.90;;;;;;5066789;28;20137;-59
2022/08/21 04:45:47;;;;;;;10.85;5.72;;;14.70;99.90;;;;;;5072258;28;20363;-59
2022/08/21 04:48:15;;;;;;;8.75;5.85;;;14.60;99.90;;;;;;5072041;28;20512;-59
2022/08/21 04:50:49;;;;;;;9.93;5.80;;;14.70;99.90;;;;;;5071729;28;20052;-59
2022/08/21 04:53:31;;;;;;;9.93;5.63;;;14.80;99.90;;;;;;5064856;28;20099;-58
2022/08/21 04:56:00;;;;;;;11.38;5.55;;;14.80;99.90;;;;;;5072436;28;20051;-59
2022/08/21 04:58:27;;;;;;;11.38;6.00;;;14.80;99.90;;;;;;5072280;28;20052;-59
2022/08/21 05:00:55;;;;;;;10.32;5.47;;;14.80;99.90;;;;;;5072025;28;20163;-59
2022/08/21 05:03:22;;;;;;;8.95;5.32;;;14.80;99.90;;;;;;5063769;28;20751;-59
2022/08/21 05:05:49;;;;;;;10.02;6.15;;;14.80;99.90;;;;;;5072311;28;20033;-59
2022/08/21 05:08:18;;;;;;;8.85;4.82;;;14.90;99.90;;;;;;5071875;28;20037;-58
2022/08/21 05:10:44;;;;;;;8.20;5.15;;;14.90;99.90;;;;;;5071221;28;20454;-59
2022/08/21 05:13:14;;;;;;;7.80;5.10;;;15.00;99.90;;;;;;5065080;28;20048;-59
2022/08/21 05:15:40;;;;;;;10.45;5.95;;;15.00;99.90;;;;;;5065795;28;20036;-59
2022/08/21 05:18:06;;;;;;;7.72;4.93;;;15.10;99.90;;;;;;5060775;28;20477;-59
2022/08/21 05:20:34;;;;;;;8.40;5.13;;;15.10;99.90;;;;;;5070941;28;20048;-59
2022/08/21 05:23:00;;;;;;;10.55;5.47;;;15.20;99.90;;;;;;5066284;28;20047;-59
2022/08/21 05:25:26;;;;;;;8.65;5.43;;;15.20;99.90;;;;;;5064790;28;20480;-59
2022/08/21 05:27:53;;;;;;;10.27;5.75;;;15.50;99.90;;;;;;5070544;28;20044;-60
2022/08/21 05:30:20;;;;;;;10.85;5.28;;;15.80;99.90;;;;;;5071613;28;20051;-59
2022/08/21 05:32:47;;;;;;;7.05;5.15;;;16.20;99.90;;;;;;5067307;28;20059;-59
2022/08/21 05:35:13;;;;;;;10.10;5.43;;;16.50;99.90;;;;;;5043969;28;20044;-59
2022/08/21 05:37:39;;;;;;;9.40;5.63;;;16.60;99.90;;;;;;5059366;28;20078;-59
2022/08/21 05:40:07;;;;;;;11.07;5.30;;;16.70;99.90;;;;;;5069541;28;20111;-59
2022/08/21 05:42:33;;;;;;;12.02;5.63;;;17.00;99.90;;;;;;5069803;28;20040;-59
2022/08/21 05:44:59;;;;;;;9.32;4.60;;;17.30;99.90;;;;;;5053684;28;20112;-59
2022/08/21 05:47:25;;;;;;;10.85;5.18;;;17.90;99.90;;;;;;5071601;28;20386;-60
2022/08/21 05:49:50;;;;;;;10.25;4.93;;;18.40;99.90;;;;;;5070724;28;20048;-59
2022/08/21 05:52:25;;;;;;;9.65;4.95;;;18.80;99.90;;;;;;5071499;28;20483;-60
2022/08/21 05:54:53;;;;;;;10.20;4.95;;;19.30;99.90;;;;;;5064675;28;20460;-60
2022/08/21 05:57:19;;;;;;;9.05;4.60;;;19.50;99.90;;;;;;5064296;28;20039;-59
2022/08/21 05:59:45;;;;;;;11.90;4.65;;;19.80;99.90;;;;;;5063028;28;20044;-60
2022/08/21 06:02:11;;;;;;;7.93;4.70;;;20.20;99.90;;;;;;5071268;28;20511;-59
2022/08/21 06:04:38;;;;;;;8.57;4.45;;;20.50;99.90;;;;;;5062972;28;20050;-61
2022/08/21 06:07:04;;;;;;;10.45;4.28;;;20.70;99.90;;;;;;5071004;28;20040;-59
2022/08/21 06:09:30;;;;;;;7.57;4.50;;;21.00;99.90;;;;;;5070625;28;20055;-60
2022/08/21 06:11:56;;;;;;;10.07;4.40;;;21.40;99.90;;;;;;5071055;28;20033;-58
2022/08/21 06:14:22;;;;;;;7.45;4.03;;;21.70;99.90;;;;;;5061490;28;20045;-58
2022/08/21 06:16:47;;;;;;;9.50;4.47;;;21.80;99.90;;;;;;5070990;28;20097;-59
2022/08/21 06:19:13;;;;;;;7.82;3.88;;;22.00;99.90;;;;;;5070782;28;20037;-58
2022/08/21 06:21:38;;;;;;;10.10;4.50;;;22.30;99.90;;;;;;5070797;28;20059;-59
2022/08/21 06:24:05;;;;;;;9.55;4.05;;;22.40;99.90;;;;;;5059158;28;20098;-58
2022/08/21 06:26:31;;;;;;;8.32;3.97;;;22.60;99.90;;;;;;5071120;28;20086;-57
2022/08/21 06:28:57;;;;;;;9.32;4.43;;;22.90;99.90;;;;;;5073162;28;20120;-58
2022/08/21 06:31:25;;;;;;;9.63;4.70;;;22.90;99.90;;;;;;5074735;28;20380;-59
2022/08/21 06:33:51;;;;;;;8.88;4.40;;;22.80;99.90;;;;;;5062617;28;20457;-57
2022/08/21 06:36:17;;;;;;;8.43;4.70;;;22.80;99.90;;;;;;5069721;28;20350;-58
2022/08/21 06:38:43;;;;;;;8.15;4.03;;;22.90;99.90;;;;;;5074450;28;20064;-60
2022/08/21 06:41:09;;;;;;;11.93;4.15;;;23.10;99.90;;;;;;5074880;28;20045;-58
2022/08/21 06:43:34;;;;;;;12.23;4.47;;;23.30;99.90;;;;;;5070059;28;20037;-58
2022/08/21 06:46:00;;;;;;;7.53;4.28;;;23.40;99.90;;;;;;5074699;28;20148;-58
2022/08/21 06:48:26;;;;;;;11.15;4.55;;;23.50;99.90;;;;;;5074978;28;20044;-58
2022/08/21 06:50:53;;;;;;;9.27;4.28;;;23.60;99.90;;;;;;5074470;28;20101;-58
2022/08/21 06:53:21;;;;;;;8.77;4.20;;;23.80;99.90;;;;;;5068092;28;20068;-58
2022/08/21 06:55:47;;;;;;;7.20;3.30;;;24.10;99.90;;;;;;5073679;28;20477;-58
2022/08/21 06:58:14;;;;;;;10.18;3.92;;;24.10;99.90;;;;;;5073378;28;20472;-58
2022/08/21 07:00:43;;;;;;;8.27;3.65;;;24.20;99.90;;;;;;5059815;28;20028;-59
2022/08/21 07:03:31;;;;;;;9.85;3.85;;;24.30;99.90;;;;;;5068604;28;20045;-59
2022/08/21 07:05:58;;;;;;;7.00;3.17;;;24.40;99.90;;;;;;5048025;28;20369;-59
2022/08/21 07:08:27;;;;;;;11.30;3.55;;;24.40;99.90;;;;;;5074201;28;20044;-58
2022/08/21 07:10:56;;;;;;;7.95;3.42;;;24.60;99.90;;;;;;5073955;28;20032;-58
2022/08/21 07:13:21;;;;;;;9.05;3.85;;;24.60;99.90;;;;;;5066613;28;20407;-58
2022/08/21 07:15:47;;;;;;;9.15;3.58;;;24.60;99.90;;;;;;5072140;28;20119;-58
2022/08/21 07:18:13;;;;;;;9.70;3.70;;;24.80;99.90;;;;;;5074099;28;20049;-58
2022/08/21 07:20:40;;;;;;;7.95;3.65;;;24.70;99.90;;;;;;5073243;28;20044;-58
2022/08/21 07:23:10;;;;;;;8.05;3.45;;;24.90;99.90;;;;;;5068728;28;20045;-58
2022/08/21 07:25:36;;;;;;;8.45;3.83;;;24.90;99.90;;;;;;5068401;28;20057;-58
2022/08/21 07:28:02;;;;;;;9.68;3.80;;;24.60;99.90;;;;;;5074136;28;20044;-58
2022/08/21 07:30:28;;;;;;;8.30;3.45;;;24.40;99.90;;;;;;5073379;28;20172;-58
2022/08/21 07:32:54;;;;;;;9.13;4.15;;;23.80;99.90;;;;;;5071319;28;20047;-58
2022/08/21 07:35:21;;;;;;;7.97;3.00;;;23.40;99.90;;;;;;5073892;28;20032;-59
2022/08/21 07:37:47;;;;;;;8.32;3.10;;;23.30;99.90;;;;;;5074725;28;20148;-58
2022/08/21 07:40:13;;;;;;;8.45;3.03;;;23.20;99.90;;;;;;5057890;28;20155;-59
2022/08/21 07:42:44;;;;;;;7.72;3.00;;;23.10;99.90;;;;;;5072398;28;20048;-58
2022/08/21 07:45:11;;;;;;;9.00;2.45;;;23.00;99.90;;;;;;5071350;28;20073;-58
2022/08/21 07:47:38;;;;;;;7.43;2.30;;;23.00;99.90;;;;;;5073526;28;20032;-58
2022/08/21 07:50:04;;;;;;;6.97;2.35;;;23.00;99.90;;;;;;5073097;28;20047;-58
2022/08/21 07:52:30;;;;;;;9.60;2.30;;;22.70;99.90;;;;;;5073609;28;20115;-57
2022/08/21 07:54:55;;;;;;;4.22;1.60;;;22.60;99.90;;;;;;5067795;28;20120;-59
2022/08/21 07:57:21;;;;;;;7.18;1.83;;;22.50;99.90;;;;;;5073644;28;20377;-59
2022/08/21 07:59:47;;;;;;;5.55;1.70;;;22.50;99.90;;;;;;5072615;28;20049;-59
2022/08/21 08:02:26;;;;;;;6.93;2.00;;;22.30;99.90;;;;;;5073351;28;20115;-59
2022/08/21 08:04:51;;;;;;;11.60;2.35;;;22.40;99.90;;;;;;5066102;28;20045;-59
2022/08/21 08:07:17;;;;;;;7.00;2.20;;;22.40;99.90;;;;;;5073391;28;20054;-59
2022/08/21 08:09:43;;;;;;;7.03;2.03;;;22.40;99.90;;;;;;5072850;28;20079;-59
2022/08/21 08:12:09;;;;;;;7.15;2.17;;;22.40;99.90;;;;;;5056969;28;20068;-59
2022/08/21 08:14:35;;;;;;;8.18;2.97;;;22.50;99.90;;;;;;5053163;28;20052;-58
2022/08/21 08:17:02;;;;;;;8.60;2.70;;;22.30;99.90;;;;;;5067008;28;20468;-57
2022/08/21 08:19:28;;;;;;;7.15;2.38;;;22.30;99.90;;;;;;5072545;28;20119;-59
2022/08/21 08:21:54;;;;;;;8.15;3.15;;;22.20;99.90;;;;;;5073324;28;20040;-59
2022/08/21 08:24:20;;;;;;;9.07;2.50;;;22.40;99.90;;;;;;5060928;28;20365;-58
2022/08/21 08:26:46;;;;;;;6.68;2.45;;;22.30;99.90;;;;;;5072695;28;20149;-58
2022/08/21 08:29:12;;;;;;;9.98;2.70;;;22.50;99.90;;;;;;5072231;28;20052;-58
2022/08/21 08:31:38;;;;;;;7.75;2.40;;;22.60;99.90;;;;;;5068515;28;20044;-58
2022/08/21 08:34:04;;;;;;;8.35;2.63;;;22.70;99.90;;;;;;5062954;28;20036;-58
2022/08/21 08:36:36;;;;;;;7.80;2.50;;;22.70;99.90;;;;;;5072459;28;20093;-58
2022/08/21 08:39:04;;;;;;;6.88;2.55;;;22.70;99.90;;;;;;5072513;28;20178;-59
2022/08/21 08:41:32;;;;;;;7.72;2.58;;;22.70;99.90;;;;;;5071166;28;20457;-59
2022/08/21 08:44:07;;;;;;;7.07;2.60;;;22.70;99.90;;;;;;5067640;28;20047;-58
2022/08/21 08:46:45;;;;;;;7.03;2.78;;;22.60;99.90;;;;;;5072392;28;20047;-59
2022/08/21 08:49:31;;;;;;;8.05;2.58;;;22.70;99.90;;;;;;5071758;28;20478;-58
2022/08/21 08:52:21;;;;;;;6.60;2.67;;;22.80;99.90;;;;;;5057455;28;20032;-59
2022/08/21 08:55:07;;;;;;;7.50;2.60;;;22.90;99.90;;;;;;5066376;28;20053;-59
2022/08/21 08:57:34;;;;;;;9.30;2.95;;;22.80;99.90;;;;;;5072108;28;20044;-59
2022/08/21 09:00:04;;;;;;;8.30;2.60;;;22.90;99.90;;;;;;5072347;28;20028;-59
2022/08/21 09:02:30;;;;;;;8.32;3.08;;;22.90;99.90;;;;;;5072318;28;20047;-59
2022/08/21 09:04:56;;;;;;;11.23;2.92;;;22.90;99.90;;;;;;5052710;28;20048;-59
2022/08/21 09:08:07;;;;;;;7.90;2.90;;;22.80;99.90;;;;;;5070815;28;20037;-59
2022/08/21 09:11:05;;;;;;;10.90;2.38;;;22.80;99.90;;;;;;5045648;28;20098;-60
2022/08/21 09:14:00;;;;;;;10.00;3.22;;;22.80;99.90;;;;;;5063397;28;20033;-59
2022/08/21 09:16:44;;;;;;;9.93;3.03;;;22.70;99.90;;;;;;5050830;28;20075;-59
2022/08/21 09:19:47;;;;;;;6.82;2.95;;;22.60;99.90;;;;;;5057013;28;20032;-59
2022/08/21 09:22:46;;;;;;;10.50;3.35;;;22.50;99.90;;;;;;5070439;28;20437;-59
2022/08/21 09:25:18;;;;;;;9.25;2.75;;;22.70;99.90;;;;;;5053954;28;20543;-59
2022/08/21 09:27:44;;;;;;;11.68;3.47;;;22.70;99.90;;;;;;5071304;28;20438;-59
2022/08/21 09:30:11;;;;;;;12.13;3.10;;;22.60;99.90;;;;;;5071355;28;20045;-59
2022/08/21 09:32:39;;;;;;;12.05;3.75;;;22.60;99.90;;;;;;5071495;28;20087;-59
2022/08/21 09:35:04;;;;;;;14.13;3.30;;;22.80;99.90;;;;;;5069938;28;20028;-59
2022/08/21 09:37:34;;;;;;;9.98;3.30;;;22.80;99.90;;;;;;5071044;28;20048;-60
2022/08/21 09:40:01;;;;;;;10.25;3.53;;;22.90;99.90;;;;;;5071042;28;20040;-59
2022/08/21 09:42:31;;;;;;;10.25;2.92;;;23.00;99.90;;;;;;5071413;28;20063;-60
2022/08/21 09:45:16;;;;;;;13.60;3.70;;;23.10;99.90;;;;;;5067092;28;20072;-59
2022/08/21 09:47:43;;;;;;;10.27;3.08;;;23.00;99.90;;;;;;5060538;28;20051;-59
2022/08/21 09:50:24;;;;;;;8.75;3.20;;;22.90;99.90;;;;;;5067600;28;20036;-59
2022/08/21 09:52:58;;;;;;;11.15;2.30;;;22.90;99.90;;;;;;5069573;28;20098;-60
2022/08/21 09:58:31;;;;;;;10.70;2.78;;;22.60;99.90;;;;;;5071176;28;20365;-59
2022/08/21 10:01:00;;;;;;;12.15;2.92;;;22.50;99.90;;;;;;5058746;28;20048;-59
2022/08/21 10:03:25;;;;;;;12.82;2.92;;;22.50;99.90;;;;;;5064018;28;20396;-59
2022/08/21 10:06:16;;;;;;;9.75;3.00;;;22.70;99.90;;;;;;5071536;28;20520;-60
2022/08/21 10:08:42;;;;;;;12.45;2.83;;;23.10;99.90;;;;;;5070452;28;20036;-60
2022/08/21 10:11:14;;;;;;;12.20;3.17;;;23.60;99.90;;;;;;5070876;28;20040;-60
2022/08/21 10:14:18;;;;;;;7.88;2.30;;;23.80;99.90;;;;;;5063017;28;20108;-59
2022/08/21 10:17:07;;;;;;;9.52;2.85;;;23.90;99.90;;;;;;5071326;28;20115;-59
2022/08/21 10:19:44;;;;;;;9.68;2.63;;;23.80;99.90;;;;;;5070742;28;20090;-59
2022/08/21 10:22:10;;;;;;;7.97;2.67;;;23.90;99.90;;;;;;5070836;28;20115;-60
2022/08/21 10:24:52;;;;;;;8.90;2.40;;;24.00;99.90;;;;;;5061213;28;20532;-59
2022/08/21 10:27:30;;;;;;;10.05;2.50;;;24.10;99.90;;;;;;5070312;28;20040;-59
2022/08/21 10:30:12;;;;;;;8.82;2.60;;;24.10;99.90;;;;;;5069310;28;20044;-59
2022/08/21 10:32:46;;;;;;;7.45;2.53;;;24.00;99.90;;;;;;5070959;28;20041;-59
2022/08/21 10:35:14;;;;;;;8.13;2.55;;;24.10;99.90;;;;;;5056395;28;20372;-60
2022/08/21 10:38:07;;;;;;;10.75;2.25;;;24.30;99.90;;;;;;5070866;28;20044;-59
2022/08/21 10:40:58;;;;;;;8.82;2.30;;;24.30;99.90;;;;;;5058564;28;20115;-59
2022/08/21 10:43:54;;;;;;;10.18;2.45;;;24.40;99.90;;;;;;5069409;28;20058;-59
2022/08/21 10:46:25;;;;;;;7.30;2.10;;;24.40;99.90;;;;;;5071003;28;20037;-59
2022/08/21 10:49:21;;;;;;;10.82;2.80;;;24.60;99.90;;;;;;5071164;28;20040;-59
2022/08/21 10:52:26;;;;;;;6.82;2.50;;;24.50;99.90;;;;;;5059981;28;20048;-59
2022/08/21 10:54:54;;;;;;;;;;;24.60;99.90;;;;;;5067098;28;20041;-59
2022/08/21 10:57:29;;;;;;;7.90;2.50;;;24.50;99.90;;;;;;5070927;28;20325;-59
2022/08/21 11:00:08;;;;;;;7.50;2.35;;;24.60;99.90;;;;;;5057241;28;20037;-59
2022/08/21 11:02:42;;;;;;;7.28;2.20;;;24.50;99.90;;;;;;5044649;28;20645;-59
2022/08/21 11:05:25;;;;;;;10.48;2.92;;;24.50;99.90;;;;;;5064759;28;20029;-59
2022/08/21 11:08:02;;;;;;;10.70;3.10;;;24.50;99.90;;;;;;5070995;28;20036;-59
2022/08/21 11:10:38;;;;;;;9.55;3.15;;;24.40;99.90;;;;;;5070334;28;20641;-59
2022/08/21 11:13:41;;;;;;;9.00;3.05;;;24.30;99.90;;;;;;5067420;28;20044;-59
2022/08/21 11:16:36;;;;;;;9.00;3.38;;;24.50;99.90;;;;;;5043765;28;20132;-60
2022/08/21 11:19:18;;;;;;;10.45;2.72;;;24.70;99.90;;;;;;5073680;28;20048;-60
2022/08/21 11:21:56;;;;;;;8.85;2.70;;;25.00;99.90;;;;;;5074065;28;20044;-59
2022/08/21 11:24:47;;;;;;;11.23;2.67;;;25.20;99.90;;;;;;5060483;28;20132;-60
2022/08/21 11:27:28;;;;;;;7.15;2.22;;;25.40;99.90;;;;;;5074126;28;20055;-59
2022/08/21 11:29:58;;;;;;;6.72;2.40;;;25.70;99.90;;;;;;5073577;28;20036;-60
2022/08/21 11:32:51;;;;;;;9.43;2.58;;;25.90;99.90;;;;;;5074089;28;20033;-60
2022/08/21 11:35:22;;;;;;;7.90;2.57;;;25.80;99.90;;;;;;5060096;28;20516;-60
2022/08/21 11:38:08;;;;;;;9.00;2.10;;;25.70;99.90;;;;;;5073782;28;20123;-59
2022/08/21 11:40:42;;;;;;;7.22;2.17;;;25.50;99.20;;;;;;5073491;28;20119;-59
2022/08/21 11:43:29;;;;;;;7.22;2.30;;;25.30;99.50;;;;;;5071267;28;20066;-59
2022/08/21 11:46:04;;;;;;;8.35;2.47;;;25.10;99.90;;;;;;5073996;28;20036;-59
2022/08/21 11:48:53;;;;;;;10.98;2.50;;;25.20;99.90;;;;;;5072318;28;20149;-61
2022/08/21 11:51:25;;;;;;;10.05;2.60;;;25.20;99.90;;;;;;5060880;28;20421;-59
2022/08/21 11:54:04;;;;;;;10.52;3.38;;;25.30;99.90;;;;;;5067768;28;20472;-59
2022/08/21 11:56:46;;;;;;;9.18;2.50;;;25.30;99.90;;;;;;5073683;28;20106;-59
2022/08/21 11:59:29;;;;;;;9.93;2.55;;;25.20;99.90;;;;;;5072940;28;20480;-59
2022/08/21 12:01:56;;;;;;;9.77;2.30;;;25.30;99.90;;;;;;5073485;28;20040;-60
2022/08/21 12:04:34;;;;;;;7.78;2.25;;;25.50;99.90;;;;;;5067864;28;20055;-59
2022/08/21 12:07:13;;;;;;;9.05;2.95;;;25.80;99.90;;;;;;5070983;28;20052;-59
2022/08/21 12:09:39;;;;;;;7.65;2.65;;;25.90;99.90;;;;;;5052664;28;20076;-59
2022/08/21 12:12:12;;;;;;;7.95;2.45;;;25.90;99.90;;;;;;5068455;28;20075;-59
2022/08/21 12:14:48;;;;;;;9.10;2.75;;;26.00;99.90;;;;;;5066016;28;20085;-59
2022/08/21 12:17:23;;;;;;;8.15;2.58;;;26.00;99.90;;;;;;5073033;28;20040;-59
2022/08/21 12:20:17;;;;;;;11.90;3.13;;;26.00;99.90;;;;;;5072632;28;20089;-60
2022/08/21 12:23:03;;;;;;;8.85;2.65;;;26.10;99.90;;;;;;5072609;28;20047;-59
2022/08/21 12:25:38;;;;;;;8.23;2.63;;;26.10;99.90;;;;;;5059436;28;20481;-60
2022/08/21 12:28:13;;;;;;;8.95;2.53;;;25.90;99.90;;;;;;5069704;28;20049;-59
2022/08/21 12:30:45;;;;;;;10.40;2.75;;;26.00;99.90;;;;;;5063024;28;20039;-59
2022/08/21 12:33:39;;;;;;;9.10;2.60;;;25.80;99.90;;;;;;5069787;28;20048;-61
2022/08/21 12:36:12;;;;;;;14.23;2.67;;;25.80;99.90;;;;;;5065301;28;20037;-61
2022/08/21 12:39:00;;;;;;;9.43;3.05;;;25.60;99.90;;;;;;5071392;28;20441;-60
2022/08/21 12:41:33;;;;;;;8.82;2.33;;;25.40;99.90;;;;;;5072635;28;20388;-59
2022/08/21 12:44:08;;;;;;;8.27;2.38;;;25.30;99.90;;;;;;5069801;28;20052;-60
2022/08/21 12:46:46;;;;;;;8.27;2.83;;;25.20;99.90;;;;;;5072419;28;20127;-60
2022/08/21 12:49:24;;;;;;;8.45;2.50;;;25.20;99.90;;;;;;5072252;28;20052;-60
2022/08/21 12:52:08;;;;;;;7.65;2.78;;;25.10;99.90;;;;;;5071849;28;20465;-59
2022/08/21 12:54:40;;;;;;;10.20;2.75;;;24.80;99.90;;;;;;5068486;28;20521;-59
2022/08/21 12:57:07;;;;;;;10.13;2.30;;;24.80;99.90;;;;;;5072589;28;20123;-59
2022/08/21 12:59:38;;;;;;;8.80;2.53;;;24.90;99.90;;;;;;5072124;28;20047;-60
2022/08/21 13:02:18;;;;;;;11.15;2.60;;;25.00;99.90;;;;;;5071814;28;20098;-59
2022/08/21 13:04:45;;;;;;;10.57;2.67;;;25.10;99.90;;;;;;5067154;28;20036;-60